SAEZ/EZE METAR and TAF weather

Enter ICAO airport designator
Station Type Date Time Source
SAEZ METAR 2019/08/24 18:00 UTC NOAA

SAEZ 241800Z 03010KT CAVOK 17/09 Q1022 NOSIG


Station Type Date Time Source
SAEZ Decoded METAR 2019/08/24 18:00 UTC NOAA

Station name not available
Aug 24, 2019 - 02:00 PM EDT / 2019.08.24 1800 UTC
Wind: from the NNE (030 degrees) at 12 MPH (10 KT):0
Visibility: greater than 7 mile(s):0
Temperature: 62 F (17 C)
Dew Point: 48 F (9 C)
Relative Humidity: 59%
Pressure (altimeter): 30.18 in. Hg (1022 hPa)
ob: SAEZ 241800Z 03010KT CAVOK 17/09 Q1022 NOSIG
cycle: 18

Station Type Date Time Source
SAEZ TAF 2019/08/24 18:09 UTC NOAA

TAF TAF SAEZ 241700Z 2418/2518 05010KT CAVOK TX18/2518Z TN09/2510Z PROB30 2506/2512 05004KT 5000 BR NSC
BECMG 2512/2515 02010KT CAVOK

Example: see airport list